Time;durP1;ratioP1;P1;durP2;ratioP2;P2;SDS_P1;SDS_P2;PMS_P1;PMS_P2;Temp;Humidity;BMP_temperature;BMP_pressure;BME280_temperature;BME280_humidity;BME280_pressure;Samples;Min_cycle;Max_cycle;Signal;HPM_P1;HPM_P2
2022/03/06 00:02:19;;;;;;;4.75;2.22;;;;;;;0.89;100.00;100130.41;4938486;29;20062;-62
2022/03/06 00:05:04;;;;;;;;;;;;;;;1.05;100.00;100129.94;4937692;29;20105;-64
2022/03/06 00:07:48;;;;;;;5.00;2.40;;;;;;;1.05;100.00;100128.22;4937154;29;19996;-62
2022/03/06 00:10:33;;;;;;;6.45;2.15;;;;;;;1.17;100.00;100138.06;4933756;29;20514;-62
2022/03/06 00:13:18;;;;;;;3.88;2.15;;;;;;;1.07;100.00;100118.69;4923632;29;20101;-65
2022/03/06 00:16:03;;;;;;;4.13;2.20;;;;;;;1.13;100.00;100133.59;4935646;29;20424;-62
2022/03/06 00:18:48;;;;;;;5.32;2.78;;;;;;;1.06;100.00;100126.50;4935257;29;20118;-62
2022/03/06 00:21:34;;;;;;;2.38;1.73;;;;;;;1.15;100.00;100124.09;4923478;29;20050;-61
2022/03/06 00:24:19;;;;;;;3.95;2.00;;;;;;;0.94;100.00;100111.41;4943723;29;20054;-65
2022/03/06 00:27:03;;;;;;;5.47;1.85;;;;;;;1.03;100.00;100121.22;4934583;29;20109;-62
2022/03/06 00:29:48;;;;;;;3.60;1.70;;;;;;;0.93;100.00;100100.94;4932934;28;20062;-63
2022/03/06 00:32:32;;;;;;;2.55;1.60;;;;;;;0.96;100.00;100127.13;4934958;29;20054;-63
2022/03/06 00:35:17;;;;;;;4.88;1.85;;;;;;;0.97;100.00;100115.81;4936085;29;20477;-62
2022/03/06 00:38:01;;;;;;;4.13;2.08;;;;;;;1.18;100.00;100119.81;4949791;29;20051;-62
2022/03/06 00:40:46;;;;;;;4.68;2.20;;;;;;;1.33;100.00;100122.78;4945772;29;20050;-64
2022/03/06 00:43:30;;;;;;;4.70;2.50;;;;;;;1.30;100.00;100122.69;4933535;29;20101;-65
2022/03/06 00:46:15;;;;;;;6.10;2.50;;;;;;;0.94;100.00;100123.59;4949443;29;20680;-62
2022/03/06 00:48:59;;;;;;;5.97;2.90;;;;;;;0.82;100.00;100123.31;4920512;29;20102;-62
2022/03/06 00:51:46;;;;;;;7.82;2.40;;;;;;;0.61;100.00;100121.06;4933960;29;20106;-64
2022/03/06 00:54:30;;;;;;;3.97;2.25;;;;;;;0.72;100.00;100114.38;4932252;29;20058;-65
2022/03/06 00:57:15;;;;;;;5.20;2.58;;;;;;;0.75;100.00;100129.22;4951840;29;20380;-63
2022/03/06 01:00:04;;;;;;;5.00;2.30;;;;;;;0.64;100.00;100107.19;4941247;29;20050;-64
2022/03/06 01:02:49;;;;;;;5.32;2.45;;;;;;;0.21;100.00;100060.94;4951104;29;20142;-66
2022/03/06 01:05:34;;;;;;;4.50;2.40;;;;;;;0.50;100.00;100106.84;4950213;29;20587;-62
2022/03/06 01:08:19;;;;;;;5.20;2.33;;;;;;;0.41;100.00;100106.63;4933045;29;20142;-64
2022/03/06 01:11:04;;;;;;;4.57;2.30;;;;;;;0.38;100.00;100123.91;4932586;29;20591;-63
2022/03/06 01:13:48;;;;;;;3.50;2.10;;;;;;;0.05;100.00;100109.16;4919844;29;20189;-63
2022/03/06 01:16:33;;;;;;;5.25;2.47;;;;;;;0.13;100.00;100111.97;4948296;29;20400;-64
2022/03/06 01:19:18;;;;;;;6.85;2.33;;;;;;;-0.26;100.00;100090.94;4921577;29;20074;-64
2022/03/06 01:22:02;;;;;;;6.65;2.10;;;;;;;-0.38;100.00;100094.91;4934392;29;20061;-65
2022/03/06 01:24:47;;;;;;;7.75;2.20;;;;;;;-0.27;100.00;100104.78;4948036;29;20058;-63
2022/03/06 01:27:32;;;;;;;4.60;2.20;;;;;;;-0.31;100.00;100108.16;4943791;29;20117;-64
2022/03/06 01:30:19;;;;;;;6.03;1.83;;;;;;;-0.43;100.00;100097.38;4950154;28;20053;-64
2022/03/06 01:33:03;;;;;;;6.30;1.77;;;;;;;-0.36;100.00;100107.16;4946088;29;20097;-61
2022/03/06 01:35:48;;;;;;;3.25;1.65;;;;;;;-0.38;100.00;100115.75;4935447;29;20155;-63
2022/03/06 01:38:32;;;;;;;4.30;1.98;;;;;;;-0.23;100.00;100109.25;4947697;29;20142;-62
2022/03/06 01:41:17;;;;;;;3.67;1.92;;;;;;;-0.18;100.00;100099.84;4929971;28;20858;-64
2022/03/06 01:44:04;;;;;;;2.75;1.50;;;;;;;-0.16;100.00;100090.34;4948724;29;20058;-62
2022/03/06 01:46:49;;;;;;;6.43;1.70;;;;;;;-0.21;100.00;100093.66;4945151;29;20062;-62
2022/03/06 01:49:33;;;;;;;;;;;;;;;-0.33;100.00;100101.13;4934552;29;20089;-64
2022/03/06 01:52:18;;;;;;;2.92;1.88;;;;;;;-0.55;100.00;100091.81;4951507;28;20302;-63
2022/03/06 01:55:02;;;;;;;6.25;2.30;;;;;;;-0.62;100.00;100092.50;4949079;29;20202;-63
2022/03/06 01:57:47;;;;;;;3.75;2.10;;;;;;;-0.42;100.00;100103.50;4946406;29;20049;-63
2022/03/06 02:00:41;;;;;;;4.28;2.17;;;;;;;-0.60;100.00;100090.81;4931301;29;20045;-65
2022/03/06 02:03:26;;;;;;;4.47;2.05;;;;;;;-0.89;100.00;100064.78;4947234;29;20113;-62
2022/03/06 02:06:10;;;;;;;3.83;1.90;;;;;;;-0.96;100.00;100091.44;4934505;29;20113;-65
2022/03/06 02:08:55;;;;;;;4.18;1.88;;;;;;;-1.05;100.00;100101.56;4947495;29;20569;-61
2022/03/06 02:11:40;;;;;;;3.95;2.08;;;;;;;-1.06;100.00;100111.09;4934036;29;20062;-63
2022/03/06 02:14:24;;;;;;;6.95;2.30;;;;;;;-1.15;100.00;100105.59;4945300;29;20449;-64
2022/03/06 02:17:09;;;;;;;4.75;2.00;;;;;;;-1.10;100.00;100103.16;4933744;29;20090;-63
2022/03/06 02:19:59;;;;;;;7.47;2.10;;;;;;;-1.18;100.00;100089.91;4945126;29;20069;-63
2022/03/06 02:22:50;;;;;;;5.72;2.10;;;;;;;-1.03;100.00;100105.13;4948456;29;20046;-63
2022/03/06 02:25:36;;;;;;;4.47;2.30;;;;;;;-1.03;100.00;100100.78;4935774;29;20042;-63
2022/03/06 02:28:21;;;;;;;3.33;1.95;;;;;;;-0.99;100.00;100097.44;4932570;29;20527;-65
2022/03/06 02:31:05;;;;;;;5.25;1.77;;;;;;;-0.86;100.00;100096.09;4931682;29;20046;-64
2022/03/06 02:33:50;;;;;;;5.15;2.22;;;;;;;-0.98;100.00;100096.59;4942678;29;20046;-63
2022/03/06 02:36:34;;;;;;;8.13;2.03;;;;;;;-0.98;100.00;100078.38;4947925;29;20483;-62
2022/03/06 02:39:24;;;;;;;4.47;2.10;;;;;;;-1.02;100.00;100084.31;4932376;29;20466;-63
2022/03/06 02:42:10;;;;;;;4.95;1.98;;;;;;;-1.03;100.00;100058.28;4931046;29;20074;-64
2022/03/06 02:44:56;;;;;;;3.95;2.20;;;;;;;-0.89;100.00;100069.97;4931886;29;20049;-63
2022/03/06 02:47:42;;;;;;;4.72;1.90;;;;;;;-0.82;100.00;100084.94;4932085;29;20050;-62
2022/03/06 02:50:31;;;;;;;3.85;1.75;;;;;;;-0.92;100.00;100089.00;4932790;29;20066;-63
2022/03/06 02:53:19;;;;;;;4.43;2.20;;;;;;;-1.06;100.00;100055.59;4946067;28;20062;-63
2022/03/06 02:56:06;;;;;;;6.72;2.30;;;;;;;-1.10;100.00;100088.41;4930002;29;20535;-62
2022/03/06 02:58:51;;;;;;;4.45;2.00;;;;;;;-1.10;100.00;100085.81;4931397;29;20154;-63
2022/03/06 03:01:40;;;;;;;6.72;2.42;;;;;;;-1.28;100.00;100048.84;4931493;29;20050;-64
2022/03/06 03:04:24;;;;;;;4.00;2.15;;;;;;;-1.03;100.00;100084.31;4934011;29;20049;-61
2022/03/06 03:07:09;;;;;;;7.68;2.85;;;;;;;-1.00;100.00;100090.47;4931934;29;20062;-62
2022/03/06 03:09:54;;;;;;;5.40;2.97;;;;;;;-1.03;100.00;100087.78;4933223;29;20054;-61
2022/03/06 03:12:38;;;;;;;8.18;3.13;;;;;;;-0.87;100.00;100089.13;4932175;29;20102;-62
2022/03/06 03:15:23;;;;;;;8.23;2.80;;;;;;;-0.85;100.00;100090.06;4930896;29;20478;-65
2022/03/06 03:18:08;;;;;;;7.13;2.90;;;;;;;-0.97;100.00;100085.38;4932719;29;20050;-63
2022/03/06 03:20:52;;;;;;;4.97;2.72;;;;;;;-0.93;100.00;100091.53;4930066;29;20570;-63
2022/03/06 03:23:37;;;;;;;6.78;3.00;;;;;;;-1.10;100.00;100070.19;4932092;29;20106;-64
2022/03/06 03:26:21;;;;;;;6.85;2.70;;;;;;;-1.14;100.00;100049.28;4932828;29;20096;-63
2022/03/06 03:29:06;;;;;;;8.98;3.00;;;;;;;-1.09;100.00;100084.09;4944892;29;20396;-64
2022/03/06 03:31:50;;;;;;;6.13;2.45;;;;;;;-1.34;100.00;100038.25;4945590;29;20074;-63
2022/03/06 03:34:35;;;;;;;5.88;3.03;;;;;;;-1.15;100.00;100070.94;4933938;29;20050;-62
2022/03/06 03:37:19;;;;;;;5.80;2.80;;;;;;;-1.17;100.00;100068.28;4946662;29;20062;-63
2022/03/06 03:40:06;;;;;;;7.35;2.78;;;;;;;-1.23;100.00;100060.28;4942422;29;20061;-62
2022/03/06 03:42:50;;;;;;;6.45;2.70;;;;;;;-1.30;100.00;100041.84;4931855;29;20098;-62
2022/03/06 03:45:35;;;;;;;6.00;2.72;;;;;;;-1.26;100.00;100054.09;4934414;29;20387;-61
2022/03/06 03:48:19;;;;;;;6.13;2.63;;;;;;;-1.41;100.00;100046.72;4934383;29;20082;-63
2022/03/06 03:51:04;;;;;;;4.93;2.65;;;;;;;-1.29;100.00;100025.38;4933072;29;20166;-59
2022/03/06 03:53:49;;;;;;;7.93;3.10;;;;;;;-1.39;100.00;100033.72;4932220;29;20050;-62
2022/03/06 03:56:34;;;;;;;7.00;3.00;;;;;;;-1.47;100.00;100050.81;4946567;29;20423;-63
2022/03/06 03:59:18;;;;;;;6.10;2.42;;;;;;;-1.88;100.00;100001.81;4918072;29;20077;-64
2022/03/06 04:02:03;;;;;;;7.05;2.58;;;;;;;-1.70;100.00;100051.81;4948113;29;20109;-63
2022/03/06 04:04:49;;;;;;;4.97;2.60;;;;;;;-2.01;100.00;99997.06;4931417;29;20656;-65
2022/03/06 04:07:33;;;;;;;8.85;3.45;;;;;;;-1.74;100.00;100031.75;4923960;29;20161;-63
2022/03/06 04:10:18;;;;;;;6.13;3.33;;;;;;;-2.10;100.00;99996.78;4935130;29;20054;-64
2022/03/06 04:13:02;;;;;;;6.90;3.00;;;;;;;-1.83;100.00;100044.41;4950211;29;20126;-76
2022/03/06 04:15:47;;;;;;;11.13;3.40;;;;;;;-2.08;100.00;100045.34;4951222;29;20466;-63
2022/03/06 04:18:31;;;;;;;14.25;4.13;;;;;;;-2.14;100.00;100052.91;4946449;29;20074;-64
2022/03/06 04:21:16;;;;;;;7.45;3.63;;;;;;;-2.20;100.00;100041.44;4950265;29;20416;-64
2022/03/06 04:24:00;;;;;;;10.15;3.80;;;;;;;-2.12;100.00;100043.47;4932981;29;20046;-64
2022/03/06 04:26:45;;;;;;;10.30;4.22;;;;;;;-2.38;100.00;100023.50;4950841;29;20081;-63
2022/03/06 04:29:30;;;;;;;9.80;3.45;;;;;;;-2.60;100.00;99982.06;4951641;29;20050;-65
2022/03/06 04:32:15;;;;;;;9.27;3.53;;;;;;;-1.97;100.00;100033.56;4922182;29;20407;-63
2022/03/06 04:34:59;;;;;;;5.97;3.33;;;;;;;-1.87;100.00;100027.88;4936398;29;20602;-64
2022/03/06 04:37:44;;;;;;;7.60;4.00;;;;;;;-1.65;100.00;100012.16;4941407;29;20058;-65
2022/03/06 04:40:28;;;;;;;7.00;3.90;;;;;;;-1.39;100.00;100028.53;4940011;29;20054;-62
2022/03/06 04:43:13;;;;;;;13.50;4.47;;;;;;;-1.42;100.00;100024.13;4946995;29;20094;-64
2022/03/06 04:45:58;;;;;;;10.30;4.32;;;;;;;-1.70;100.00;100038.81;4929094;29;20407;-65
2022/03/06 04:48:43;;;;;;;10.93;4.72;;;;;;;-2.22;100.00;100028.38;4940819;29;20058;-66
2022/03/06 04:51:28;;;;;;;12.70;4.50;;;;;;;-2.54;100.00;100023.81;4929879;29;20463;-63
2022/03/06 04:54:12;;;;;;;10.93;4.80;;;;;;;-2.42;100.00;100025.97;4947783;29;20101;-63
2022/03/06 04:56:57;;;;;;;9.57;4.53;;;;;;;-2.64;100.00;99969.81;4947453;29;20554;-66
2022/03/06 04:59:42;;;;;;;10.75;4.88;;;;;;;-2.49;100.00;99970.31;4939799;29;20107;-63
2022/03/06 05:02:26;;;;;;;9.45;4.80;;;;;;;-2.08;100.00;100014.16;4945479;29;20427;-62
2022/03/06 05:05:11;;;;;;;9.10;5.13;;;;;;;-2.07;100.00;100015.94;4949073;29;20061;-63
2022/03/06 05:07:56;;;;;;;10.23;5.30;;;;;;;-2.64;100.00;100000.97;4940516;29;20468;-62
2022/03/06 05:10:40;;;;;;;14.32;4.95;;;;;;;-3.01;100.00;100003.03;4929128;29;20113;-66
2022/03/06 05:13:25;;;;;;;11.30;4.97;;;;;;;-3.16;100.00;100005.09;4940298;28;20059;-66
2022/03/06 05:16:10;;;;;;;14.35;4.72;;;;;;;-3.18;100.00;100011.00;4933412;28;20078;-66
2022/03/06 05:18:56;;;;;;;13.10;5.43;;;;;;;-3.35;100.00;100015.59;4922026;29;20082;-64
2022/03/06 05:21:41;;;;;;;9.95;5.30;;;;;;;-3.20;100.00;100018.75;4935080;29;20057;-64
2022/03/06 05:24:25;;;;;;;14.82;5.32;;;;;;;-3.29;100.00;100004.56;4949733;29;20207;-64
2022/03/06 05:27:10;;;;;;;11.38;5.32;;;;;;;-3.38;100.00;100002.50;4932733;29;20054;-63
2022/03/06 05:29:54;;;;;;;12.75;4.93;;;;;;;-3.41;100.00;99993.75;4926886;29;20065;-63
2022/03/06 05:32:40;;;;;;;12.50;4.88;;;;;;;-3.35;100.00;100004.31;4927680;29;20064;-63
2022/03/06 05:35:24;;;;;;;11.82;5.68;;;;;;;-3.37;100.00;100001.66;4951353;29;20054;-66
2022/03/06 05:38:09;;;;;;;13.00;5.35;;;;;;;-3.20;100.00;99994.53;4932579;29;20447;-65
2022/03/06 05:40:53;;;;;;;11.98;5.30;;;;;;;-2.93;100.00;100006.78;4932680;29;20134;-65
2022/03/06 05:43:38;;;;;;;10.43;5.47;;;;;;;-2.98;100.00;100002.25;4920183;29;20093;-64
2022/03/06 05:46:23;;;;;;;9.25;5.07;;;;;;;-3.14;100.00;99995.63;4919828;29;20582;-63
2022/03/06 05:49:12;;;;;;;10.82;5.53;;;;;;;-3.21;100.00;99993.63;4947548;29;20054;-63
2022/03/06 05:51:57;;;;;;;15.70;5.93;;;;;;;-3.10;100.00;100000.13;4948575;29;20134;-65
2022/03/06 05:54:41;;;;;;;13.25;5.68;;;;;;;-3.21;100.00;99993.63;4918821;29;20054;-65
2022/03/06 05:57:26;;;;;;;13.05;5.55;;;;;;;-3.15;100.00;99998.16;4934793;29;20511;-67
2022/03/06 06:00:12;;;;;;;18.15;5.70;;;;;;;-3.25;100.00;99945.09;4932580;29;20126;-64
2022/03/06 06:02:56;;;;;;;16.35;6.38;;;;;;;-2.82;100.00;99991.63;4934804;29;20066;-64
2022/03/06 06:05:41;;;;;;;15.77;6.20;;;;;;;-2.79;100.00;99981.34;4936183;29;20415;-64
2022/03/06 06:08:26;;;;;;;20.40;7.03;;;;;;;-2.56;100.00;99981.34;4950036;29;20142;-63
2022/03/06 06:11:10;;;;;;;13.20;6.05;;;;;;;-2.67;100.00;99990.47;4921075;29;20518;-64
2022/03/06 06:13:54;;;;;;;23.63;6.95;;;;;;;-2.79;100.00;99986.53;4932783;29;20069;-64
2022/03/06 06:16:39;;;;;;;18.60;6.72;;;;;;;-2.75;100.00;99971.16;4934066;29;20054;-62
2022/03/06 06:19:23;;;;;;;17.33;6.57;;;;;;;-2.53;100.00;99983.16;4933159;29;20097;-62
2022/03/06 06:22:08;;;;;;;16.90;5.85;;;;;;;-2.49;100.00;99983.31;4934466;29;20082;-62
2022/03/06 06:24:52;;;;;;;16.95;7.20;;;;;;;-2.63;100.00;99968.09;4932924;29;20440;-66
2022/03/06 06:27:37;;;;;;;16.42;6.68;;;;;;;-2.37;100.00;99982.84;4933079;28;20133;-63
2022/03/06 06:30:21;;;;;;;14.90;6.30;;;;;;;-2.52;100.00;99928.72;4948031;29;20443;-67
2022/03/06 06:33:06;;;;;;;11.52;6.13;;;;;;;-2.54;100.00;99924.31;4920065;29;20058;-67
2022/03/06 06:35:50;;;;;;;15.82;6.75;;;;;;;-2.09;100.00;99967.38;4920980;29;20428;-64
2022/03/06 06:38:35;;;;;;;14.02;6.35;;;;;;;-2.07;100.00;99970.88;4932035;29;20126;-64
2022/03/06 06:41:20;;;;;;;17.25;6.57;;;;;;;-1.97;100.00;99957.38;4934184;29;20071;-64
2022/03/06 06:44:05;;;;;;;19.42;6.35;;;;;;;-1.60;100.00;99961.19;4948116;29;20093;-64
2022/03/06 06:46:49;;;;;;;17.92;6.20;;;;;;;-1.42;100.00;99955.66;4935198;29;20046;-64
2022/03/06 06:49:35;;;;;;;20.20;6.00;;;;;;;-1.61;100.00;99904.84;4949622;29;20070;-63
2022/03/06 06:52:19;;;;;;;18.67;6.45;;;;;;;-1.31;100.00;99957.72;4933830;29;20097;-64
2022/03/06 06:55:05;;;;;;;15.02;6.60;;;;;;;-1.17;100.00;99952.94;4949031;29;20054;-63
2022/03/06 06:57:49;;;;;;;24.60;7.88;;;;;;;-1.13;100.00;99933.97;4947165;29;20058;-65
2022/03/06 07:00:34;;;;;;;13.77;5.93;;;;;;;-1.02;100.00;99949.03;4934171;29;20045;-64
2022/03/06 07:03:19;;;;;;;17.65;6.03;;;;;;;-0.89;100.00;99948.56;4919242;29;20058;-64
2022/03/06 07:06:03;;;;;;;14.25;6.53;;;;;;;-0.75;100.00;99936.78;4934270;29;20570;-66
2022/03/06 07:08:47;;;;;;;14.93;6.15;;;;;;;-0.58;100.00;99921.63;4933685;29;20380;-65
2022/03/06 07:11:32;;;;;;;10.45;4.43;;;;;;;-0.56;100.00;99902.59;4920126;29;20143;-65
2022/03/06 07:14:16;;;;;;;20.17;5.43;;;;;;;-0.38;100.00;99918.69;4934243;29;20058;-64
2022/03/06 07:17:01;;;;;;;8.30;3.67;;;;;;;-0.17;100.00;99915.72;4936075;29;20428;-69
2022/03/06 07:19:45;;;;;;;11.70;4.57;;;;;;;-0.13;100.00;99910.66;4939362;29;20377;-65
2022/03/06 07:22:29;;;;;;;8.13;3.53;;;;;;;-0.01;100.00;99904.84;4951832;29;20090;-65
2022/03/06 07:25:14;;;;;;;10.63;3.85;;;;;;;0.05;100.00;99913.66;4948824;29;20095;-65
2022/03/06 07:27:58;;;;;;;7.85;3.60;;;;;;;0.05;100.00;99871.09;4933126;29;20354;-65
2022/03/06 07:30:43;;;;;;;12.10;3.83;;;;;;;0.20;100.00;99896.63;4933910;29;20071;-65
2022/03/06 07:33:27;;;;;;;10.98;3.65;;;;;;;0.19;100.00;99906.16;4949813;29;20054;-65
2022/03/06 07:36:12;;;;;;;12.43;3.08;;;;;;;0.27;100.00;99896.81;4934548;29;20050;-65
2022/03/06 07:38:57;;;;;;;8.77;3.38;;;;;;;0.38;100.00;99904.84;4949784;28;20058;-65
2022/03/06 07:41:41;;;;;;;9.65;3.05;;;;;;;0.64;100.00;99906.31;4950939;29;20089;-65
2022/03/06 07:44:25;;;;;;;8.30;3.03;;;;;;;0.68;100.00;99902.94;4938777;29;20566;-65
2022/03/06 07:47:10;;;;;;;9.38;2.00;;;;;;;0.79;100.00;99883.16;4951625;29;20109;-66
2022/03/06 07:49:55;;;;;;;10.88;2.05;;;;;;;0.82;100.00;99891.06;4953097;29;20086;-67
2022/03/06 07:52:40;;;;;;;7.57;1.73;;;;;;;0.89;100.00;99896.41;4938489;29;20456;-67
2022/03/06 07:55:24;;;;;;;11.10;1.73;;;;;;;0.91;100.00;99870.34;4953094;29;20523;-63
2022/03/06 07:58:08;;;;;;;5.65;1.60;;;;;;;0.82;100.00;99847.56;4938115;29;20428;-64
2022/03/06 08:00:52;;;;;;;8.50;2.28;;;;;;;1.16;100.00;99888.25;4936380;29;20518;-72
2022/03/06 08:03:37;;;;;;;7.97;1.35;;;;;;;1.05;100.00;99882.81;4952980;29;20158;-65
2022/03/06 08:06:23;;;;;;;10.95;1.75;;;;;;;1.18;100.00;99890.03;4950754;29;20097;-67
2022/03/06 08:09:07;;;;;;;5.53;1.52;;;;;;;1.29;100.00;99861.50;4938080;29;20054;-65
2022/03/06 08:11:52;;;;;;;7.68;1.45;;;;;;;1.10;100.00;99833.31;4924645;29;20058;-65
2022/03/06 08:14:37;;;;;;;7.13;1.60;;;;;;;1.25;100.00;99844.91;4952804;29;20058;-65
2022/03/06 08:17:21;;;;;;;4.63;1.50;;;;;;;1.41;100.00;99823.41;4938088;29;20081;-66
2022/03/06 08:20:07;;;;;;;6.88;1.23;;;;;;;3.91;88.58;99858.81;4950830;29;20114;-69
2022/03/06 08:22:52;;;;;;;6.47;1.48;;;;;;;6.13;72.88;99851.72;4938284;29;20110;-64
2022/03/06 08:25:37;;;;;;;6.28;1.40;;;;;;;6.38;59.89;99842.94;4950327;29;20061;-69
2022/03/06 08:28:21;;;;;;;7.90;1.57;;;;;;;7.06;55.73;99845.31;4938033;29;20054;-65
2022/03/06 08:31:05;;;;;;;8.15;1.70;;;;;;;7.25;52.82;99847.88;4952562;29;20558;-64
2022/03/06 08:33:52;;;;;;;5.00;1.45;;;;;;;7.89;48.62;99830.69;4941422;29;20064;-65
2022/03/06 08:36:37;;;;;;;6.75;1.60;;;;;;;8.03;46.56;99834.06;4927768;29;20057;-71
2022/03/06 08:39:22;;;;;;;7.28;1.50;;;;;;;8.48;44.39;99815.19;4936342;29;20129;-69
2022/03/06 08:42:07;;;;;;;4.38;1.45;;;;;;;8.76;43.08;99827.19;4952739;29;20106;-65
2022/03/06 08:44:51;;;;;;;15.57;1.63;;;;;;;9.05;40.66;99793.31;4936571;29;20126;-65
2022/03/06 08:47:35;;;;;;;10.38;1.83;;;;;;;9.62;39.65;99818.06;4952018;29;20539;-65
2022/03/06 08:50:20;;;;;;;10.00;1.98;;;;;;;10.80;37.88;99828.31;4923686;29;20078;-66
2022/03/06 08:53:04;;;;;;;4.78;1.75;;;;;;;10.91;35.66;99809.53;4937115;29;20071;-65
2022/03/06 08:55:49;;;;;;;5.10;1.58;;;;;;;11.44;34.74;99825.16;4952029;29;20102;-65
2022/03/06 08:58:35;;;;;;;3.67;1.70;;;;;;;11.75;33.48;99811.16;4950784;29;20526;-70
2022/03/06 09:01:19;;;;;;;5.00;1.90;;;;;;;11.96;33.48;99804.47;4937422;29;20126;-65
2022/03/06 09:04:04;;;;;;;5.35;1.75;;;;;;;12.22;31.89;99802.03;4921851;29;20077;-66
2022/03/06 09:06:49;;;;;;;;;;;;;;;12.81;33.38;99814.56;4952173;29;20074;-65
2022/03/06 09:09:33;;;;;;;6.65;2.88;;;;;;;12.11;32.15;99798.78;4923176;29;20425;-65
2022/03/06 09:12:19;;;;;;;9.10;3.60;;;;;;;12.62;31.96;99792.91;4951681;29;20491;-65
2022/03/06 09:15:06;;;;;;;9.10;4.13;;;;;;;11.96;31.93;99793.84;4951847;29;20090;-64
2022/03/06 09:17:50;;;;;;;9.95;3.88;;;;;;;12.24;31.89;99768.28;4950081;29;20631;-67
2022/03/06 09:20:34;;;;;;;12.65;5.30;;;;;;;12.07;31.70;99735.97;4936945;29;20062;-63
2022/03/06 09:23:19;;;;;;;7.45;3.95;;;;;;;12.62;30.72;99776.94;4934595;29;20057;-65
2022/03/06 09:26:03;;;;;;;10.20;3.53;;;;;;;13.65;29.64;99774.75;4923545;29;20073;-64
2022/03/06 09:28:48;;;;;;;8.32;3.78;;;;;;;13.59;28.95;99778.47;4950783;29;20106;-64
2022/03/06 09:31:32;;;;;;;7.10;4.05;;;;;;;13.51;29.07;99768.97;4951255;29;20046;-65
2022/03/06 09:34:17;;;;;;;9.07;2.75;;;;;;;13.61;27.83;99757.97;4936813;29;20071;-66
2022/03/06 09:37:01;;;;;;;6.40;2.33;;;;;;;14.36;26.92;99725.16;4936128;29;20530;-69
2022/03/06 09:39:45;;;;;;;6.18;2.28;;;;;;;14.30;27.00;99765.41;4950880;29;20054;-64
2022/03/06 09:42:30;;;;;;;6.28;2.40;;;;;;;13.21;27.39;99761.91;4920605;29;20432;-65
2022/03/06 09:45:15;;;;;;;;;;;;;;;13.52;31.16;99752.94;4951136;29;20093;-65
2022/03/06 09:48:01;;;;;;;8.32;3.42;;;;;;;13.45;28.33;99746.06;4921483;29;19976;-66
2022/03/06 09:50:46;;;;;;;9.85;4.45;;;;;;;14.05;26.93;99755.63;4950861;29;20476;-66
2022/03/06 09:53:31;;;;;;;10.88;4.18;;;;;;;14.77;26.11;99750.34;4950829;29;20049;-65
2022/03/06 09:56:16;;;;;;;9.98;3.97;;;;;;;14.37;26.18;99716.28;4950094;29;20528;-67
2022/03/06 09:59:00;;;;;;;10.73;4.95;;;;;;;13.66;27.04;99752.50;4950690;29;20106;-65
2022/03/06 10:01:46;;;;;;;11.93;2.92;;;;;;;13.12;26.95;99730.25;4931555;29;20059;-66
2022/03/06 10:04:34;;;;;;;7.20;2.30;;;;;;;13.17;27.33;99750.50;4921611;29;20074;-65
2022/03/06 10:07:19;;;;;;;9.15;1.90;;;;;;;12.87;27.56;99747.88;4934579;29;20553;-66
2022/03/06 10:10:05;;;;;;;4.40;1.92;;;;;;;12.97;27.41;99744.00;4950380;29;20093;-65
2022/03/06 10:12:49;;;;;;;;;;;;;;;12.76;28.60;99741.97;4933834;29;20046;-66
2022/03/06 10:16:09;;;;;;;9.60;1.95;;;;;;;12.26;29.11;99737.22;4948511;28;19925;-68
2022/03/06 10:18:56;;;;;;;9.23;2.03;;;;;;;12.57;28.16;99722.13;4946479;29;20156;-66
2022/03/06 10:21:40;;;;;;;7.13;2.05;;;;;;;13.18;27.83;99709.63;4948589;29;20061;-65
2022/03/06 10:24:26;;;;;;;12.13;2.38;;;;;;;14.44;26.34;99727.59;4942454;29;20061;-65
2022/03/06 10:27:11;;;;;;;4.45;1.85;;;;;;;14.98;24.79;99717.50;4948185;29;20058;-66
2022/03/06 10:29:56;;;;;;;;;;;;;;;15.73;26.22;99719.81;4936303;29;20445;-66
2022/03/06 10:32:44;;;;;;;10.43;2.13;;;;;;;14.78;25.52;99704.03;4920218;29;19945;-70
2022/03/06 10:35:37;;;;;;;8.82;2.40;;;;;;;13.26;26.66;99696.09;4921069;29;20081;-65
2022/03/06 10:38:32;;;;;;;4.68;1.83;;;;;;;13.27;26.80;99655.22;4935345;29;20209;-66
2022/03/06 10:41:17;;;;;;;3.00;1.60;;;;;;;12.19;28.16;99678.00;4920055;29;20478;-66
2022/03/06 10:44:03;;;;;;;6.93;1.88;;;;;;;11.78;28.45;99685.34;4935602;29;20416;-67
2022/03/06 10:47:03;;;;;;;5.47;2.20;;;;;;;12.17;28.99;99678.97;4934078;29;20050;-66
2022/03/06 10:50:06;;;;;;;5.57;2.42;;;;;;;13.09;28.03;99647.81;4932823;29;20061;-69
2022/03/06 10:52:54;;;;;;;7.97;2.03;;;;;;;13.60;26.96;99660.31;4949693;29;20097;-64
2022/03/06 10:55:39;;;;;;;5.07;1.80;;;;;;;13.61;25.74;99651.38;4935534;29;20082;-64
2022/03/06 10:58:24;;;;;;;10.20;2.20;;;;;;;13.06;27.10;99661.25;4932642;29;20066;-67
2022/03/06 11:01:09;;;;;;;3.58;1.50;;;;;;;12.92;25.93;99652.78;4934281;29;20388;-65
2022/03/06 11:03:58;;;;;;;4.75;1.90;;;;;;;12.50;26.67;99656.75;4933577;29;20078;-66
2022/03/06 11:06:46;;;;;;;4.85;1.70;;;;;;;12.71;26.86;99632.16;4934914;29;20228;-64
2022/03/06 11:09:31;;;;;;;5.40;1.88;;;;;;;11.93;27.62;99624.72;4934605;29;20046;-65
2022/03/06 11:12:17;;;;;;;6.85;2.00;;;;;;;10.33;29.83;99611.03;4944754;29;20085;-68
2022/03/06 11:15:02;;;;;;;5.43;1.40;;;;;;;9.09;30.07;99606.34;4930269;29;20098;-65
2022/03/06 11:17:48;;;;;;;4.78;1.30;;;;;;;9.33;31.05;99616.50;4931651;29;20113;-63
2022/03/06 11:20:36;;;;;;;7.97;1.85;;;;;;;9.29;31.62;99617.47;4931012;29;20142;-65
2022/03/06 11:23:38;;;;;;;5.13;2.17;;;;;;;8.82;34.07;99573.31;4925629;29;20067;-65
2022/03/06 11:26:29;;;;;;;5.80;1.80;;;;;;;7.99;35.68;99572.75;4938056;29;20461;-72
2022/03/06 11:29:29;;;;;;;6.57;1.88;;;;;;;8.44;35.65;99596.81;4925622;29;20101;-68
2022/03/06 11:32:26;;;;;;;2.45;1.30;;;;;;;8.76;35.09;99583.09;4939015;29;20125;-66
2022/03/06 11:35:17;;;;;;;3.70;1.55;;;;;;;8.59;34.05;99561.34;4924925;29;20058;-65
2022/03/06 11:38:04;;;;;;;4.22;1.65;;;;;;;8.21;34.96;99568.97;4923291;29;20108;-66
2022/03/06 11:40:53;;;;;;;6.25;1.48;;;;;;;8.99;34.15;99523.66;4938571;29;20463;-65
2022/03/06 11:43:47;;;;;;;5.78;1.40;;;;;;;9.57;32.32;99556.06;4926857;29;20074;-66
2022/03/06 11:46:39;;;;;;;4.57;1.42;;;;;;;9.73;32.63;99531.94;4948213;29;20050;-66
2022/03/06 11:49:33;;;;;;;5.22;1.50;;;;;;;10.02;32.82;99562.22;4952815;29;20054;-68
2022/03/06 11:52:31;;;;;;;13.88;2.17;;;;;;;10.11;33.59;99522.31;4938933;29;20054;-65
2022/03/06 11:55:32;;;;;;;2.72;1.30;;;;;;;10.42;32.84;99560.47;4938971;29;20054;-65
2022/03/06 11:58:53;;;;;;;6.30;1.73;;;;;;;9.52;34.73;99554.41;4936168;29;20491;-66
2022/03/06 12:01:47;;;;;;;6.55;1.88;;;;;;;9.12;36.03;99545.47;4948715;29;20058;-65
2022/03/06 12:04:35;;;;;;;9.35;1.90;;;;;;;8.27;36.85;99524.84;4937284;29;20070;-64
2022/03/06 12:07:21;;;;;;;5.90;1.65;;;;;;;7.85;38.33;99535.97;4950066;29;20182;-63
2022/03/06 12:10:10;;;;;;;6.32;1.60;;;;;;;7.65;38.33;99537.09;4934221;29;20387;-64
2022/03/06 12:12:58;;;;;;;6.15;1.80;;;;;;;7.49;40.89;99525.00;4935381;29;20086;-64
2022/03/06 12:16:00;;;;;;;5.53;2.25;;;;;;;7.55;41.89;99533.69;4936172;29;20566;-65
2022/03/06 12:19:04;;;;;;;8.80;2.95;;;;;;;7.39;43.06;99489.94;4935311;29;20098;-65
2022/03/06 12:21:48;;;;;;;3.65;2.00;;;;;;;7.45;41.07;99521.53;4948071;29;20138;-67
2022/03/06 12:24:33;;;;;;;5.03;2.17;;;;;;;6.74;41.15;99529.28;4954932;29;20531;-65
2022/03/06 12:27:25;;;;;;;9.85;2.28;;;;;;;6.49;42.81;99522.44;4922670;29;20126;-65
2022/03/06 12:30:13;;;;;;;6.22;2.00;;;;;;;5.96;44.97;99514.06;4938987;29;20100;-65
2022/03/06 12:32:57;;;;;;;9.05;1.70;;;;;;;6.12;44.65;99499.03;4938967;29;20146;-65
2022/03/06 12:35:42;;;;;;;4.32;1.80;;;;;;;5.73;43.45;99504.53;4949337;29;20497;-63
2022/03/06 12:38:28;;;;;;;5.35;1.80;;;;;;;5.60;43.78;99502.81;4936540;29;20093;-66
2022/03/06 12:41:13;;;;;;;9.70;1.40;;;;;;;5.60;45.01;99508.06;4936307;29;20046;-64
2022/03/06 12:44:06;;;;;;;5.00;1.75;;;;;;;5.31;44.66;99449.47;4935693;29;20421;-65
2022/03/06 12:46:51;;;;;;;6.82;1.63;;;;;;;5.98;43.83;99493.88;4937644;29;20438;-66
2022/03/06 12:49:36;;;;;;;;;;;;;;;6.15;42.61;99497.28;4936907;29;20061;-65
2022/03/06 12:52:24;;;;;;;10.73;3.60;;;;;;;5.93;43.46;99486.91;4914350;29;20076;-64
2022/03/06 12:55:20;;;;;;;7.63;2.47;;;;;;;5.92;43.20;99482.50;4951972;29;20050;-64